createdAt,value
2022-10-25T00:00:31.404Z,3.30
2022-10-25T00:02:58.534Z,3.58
2022-10-25T00:05:25.571Z,2.95
2022-10-25T00:07:52.605Z,3.58
2022-10-25T00:10:22.267Z,3.55
2022-10-25T00:12:52.560Z,3.88
2022-10-25T00:15:19.703Z,4.00
2022-10-25T00:17:47.002Z,4.18
2022-10-25T00:20:14.562Z,4.40
2022-10-25T00:22:41.604Z,4.13
2022-10-25T00:25:09.332Z,4.20
2022-10-25T00:27:36.631Z,3.88
2022-10-25T00:30:04.903Z,4.25
2022-10-25T00:32:33.143Z,4.07
2022-10-25T00:35:00.200Z,4.15
2022-10-25T00:37:27.320Z,4.60
2022-10-25T00:39:54.355Z,4.38
2022-10-25T00:42:23.229Z,3.92
2022-10-25T00:45:01.811Z,4.10
2022-10-25T00:47:33.555Z,3.97
2022-10-25T00:50:06.644Z,4.18
2022-10-25T00:52:36.281Z,4.25
2022-10-25T00:55:03.818Z,4.15
2022-10-25T00:57:34.861Z,3.97
2022-10-25T01:00:03.372Z,4.03
2022-10-25T01:02:30.495Z,4.22
2022-10-25T01:04:57.758Z,4.07
2022-10-25T01:07:24.831Z,3.92
2022-10-25T01:09:52.031Z,3.90
2022-10-25T01:12:19.059Z,4.22
2022-10-25T01:14:48.628Z,3.92
2022-10-25T01:17:18.444Z,4.00
2022-10-25T01:19:45.456Z,3.83
2022-10-25T01:22:17.016Z,3.90
2022-10-25T01:24:47.087Z,4.00
2022-10-25T01:27:31.355Z,3.78
2022-10-25T01:30:06.694Z,4.43
2022-10-25T01:32:39.766Z,4.22
2022-10-25T01:35:13.909Z,4.38
2022-10-25T01:37:43.628Z,3.63
2022-10-25T01:40:24.518Z,3.53
2022-10-25T01:43:14.594Z,3.38
2022-10-25T01:45:46.555Z,3.60
2022-10-25T01:48:15.715Z,3.40
2022-10-25T01:50:45.242Z,3.83
2022-10-25T01:53:12.315Z,3.15
2022-10-25T01:55:54.422Z,3.13
2022-10-25T01:58:45.365Z,3.83
2022-10-25T02:01:35.590Z,3.50
2022-10-25T02:04:07.759Z,3.05
2022-10-25T02:07:05.102Z,3.40
2022-10-25T02:10:01.892Z,3.40
2022-10-25T02:12:41.311Z,3.25
2022-10-25T02:15:10.487Z,3.03
2022-10-25T02:18:11.556Z,2.90
2022-10-25T02:20:41.830Z,3.65
2022-10-25T02:23:11.505Z,3.42
2022-10-25T02:25:40.287Z,3.60
2022-10-25T02:28:12.932Z,3.80
2022-10-25T02:30:41.083Z,3.35
2022-10-25T02:33:08.173Z,3.70
2022-10-25T02:35:35.229Z,3.85
2022-10-25T02:38:02.457Z,3.15
2022-10-25T02:40:29.944Z,3.30
2022-10-25T02:42:56.978Z,3.00
2022-10-25T02:45:24.625Z,3.60
2022-10-25T02:47:51.666Z,3.63
2022-10-25T02:50:18.699Z,3.05
2022-10-25T02:52:46.320Z,3.65
2022-10-25T02:55:13.555Z,3.65
2022-10-25T02:57:40.686Z,3.65
2022-10-25T03:00:08.692Z,3.55
2022-10-25T03:02:35.927Z,3.08
2022-10-25T03:05:03.094Z,3.50
2022-10-25T03:07:30.200Z,3.50
2022-10-25T03:09:57.238Z,3.67
2022-10-25T03:12:24.279Z,3.70
2022-10-25T03:14:51.318Z,3.67
2022-10-25T03:17:18.348Z,4.32
2022-10-25T03:19:45.403Z,3.67
2022-10-25T03:22:12.478Z,3.10
2022-10-25T03:24:39.547Z,3.28
2022-10-25T03:27:06.602Z,3.35
2022-10-25T03:29:33.643Z,3.60
2022-10-25T03:32:00.716Z,3.22
2022-10-25T03:34:27.776Z,3.20
2022-10-25T03:36:54.855Z,3.58
2022-10-25T03:39:21.933Z,3.28
2022-10-25T03:41:49.051Z,3.80
2022-10-25T03:44:16.093Z,2.75
2022-10-25T03:46:43.145Z,3.47
2022-10-25T03:49:10.183Z,4.07
2022-10-25T03:51:37.278Z,3.40
2022-10-25T03:54:04.438Z,3.20
2022-10-25T03:56:31.478Z,3.33
2022-10-25T03:58:58.521Z,3.53
2022-10-25T04:01:25.657Z,4.30
2022-10-25T04:03:52.773Z,3.30
2022-10-25T04:06:19.911Z,3.85
2022-10-25T04:08:46.958Z,3.53
2022-10-25T04:11:14.007Z,4.00
2022-10-25T04:13:41.069Z,3.90
2022-10-25T04:16:08.836Z,3.63
2022-10-25T04:18:36.202Z,4.32
2022-10-25T04:21:03.308Z,3.63
2022-10-25T04:23:31.296Z,3.70
2022-10-25T04:25:58.456Z,3.78
2022-10-25T04:28:25.923Z,3.72
2022-10-25T04:30:53.088Z,3.78
2022-10-25T04:33:20.190Z,3.78
2022-10-25T04:35:53.455Z,4.18
2022-10-25T04:38:20.513Z,4.50
2022-10-25T04:40:53.426Z,3.35
2022-10-25T04:45:47.137Z,3.47
2022-10-25T04:48:14.272Z,3.53
2022-10-25T04:50:41.353Z,3.08
2022-10-25T04:53:08.393Z,3.90
2022-10-25T04:55:35.426Z,3.65
2022-10-25T04:58:02.682Z,4.30
2022-10-25T05:00:29.846Z,3.25
2022-10-25T05:02:57.383Z,3.60
2022-10-25T05:05:25.655Z,3.83
2022-10-25T05:07:52.768Z,4.03
2022-10-25T05:10:19.917Z,3.95
2022-10-25T05:12:47.281Z,4.32
2022-10-25T05:15:14.558Z,3.83
2022-10-25T05:17:41.601Z,3.95
2022-10-25T05:20:08.864Z,3.65
2022-10-25T05:22:35.947Z,3.85
2022-10-25T05:25:02.998Z,3.70
2022-10-25T05:27:30.028Z,3.92
2022-10-25T05:29:57.093Z,3.53
2022-10-25T05:32:24.160Z,3.50
2022-10-25T05:34:51.206Z,3.47
2022-10-25T05:37:18.243Z,3.97
2022-10-25T05:39:45.317Z,3.30
2022-10-25T05:42:12.384Z,4.13
2022-10-25T05:44:39.451Z,3.65
2022-10-25T05:47:06.582Z,3.15
2022-10-25T05:49:39.419Z,3.47
2022-10-25T05:52:07.002Z,3.45
2022-10-25T05:54:34.185Z,3.45
2022-10-25T05:57:01.223Z,3.40
2022-10-25T05:59:28.263Z,3.60
2022-10-25T06:01:55.497Z,3.15
2022-10-25T06:04:23.026Z,3.60
2022-10-25T06:06:52.865Z,3.47
2022-10-25T06:09:19.972Z,3.42
2022-10-25T06:11:47.130Z,3.75
2022-10-25T06:14:14.316Z,3.30
2022-10-25T06:16:41.418Z,3.33
2022-10-25T06:19:08.554Z,3.95
2022-10-25T06:21:35.931Z,3.63
2022-10-25T06:24:04.146Z,3.75
2022-10-25T06:26:31.555Z,3.33
2022-10-25T06:28:59.841Z,3.75
2022-10-25T06:31:27.192Z,3.83
2022-10-25T06:33:54.249Z,3.95
2022-10-25T06:36:22.872Z,3.53
2022-10-25T06:38:50.382Z,3.63
2022-10-25T06:41:25.071Z,3.80
2022-10-25T06:43:52.332Z,4.25
2022-10-25T06:46:23.636Z,4.10
2022-10-25T06:48:51.179Z,4.75
2022-10-25T06:51:18.533Z,4.60
2022-10-25T06:53:45.255Z,4.00
2022-10-25T06:56:14.660Z,3.60
2022-10-25T06:58:42.399Z,3.72
2022-10-25T07:01:13.458Z,4.10
2022-10-25T07:03:40.892Z,4.45
2022-10-25T07:06:12.769Z,4.20
2022-10-25T07:08:41.242Z,4.18
2022-10-25T07:11:09.582Z,4.20
2022-10-25T07:13:36.800Z,4.15
2022-10-25T07:16:04.779Z,3.70
2022-10-25T07:18:32.303Z,4.43
2022-10-25T07:21:03.080Z,4.00
2022-10-25T07:23:30.690Z,3.90
2022-10-25T07:25:58.145Z,3.40
2022-10-25T07:28:25.539Z,4.60
2022-10-25T07:30:52.875Z,3.88
2022-10-25T07:33:20.744Z,4.30
2022-10-25T07:36:06.221Z,4.45
2022-10-25T07:38:37.295Z,4.18
2022-10-25T07:41:04.687Z,4.47
2022-10-25T07:43:32.116Z,4.43
2022-10-25T07:45:59.179Z,4.30
2022-10-25T07:48:26.735Z,3.83
2022-10-25T07:50:53.789Z,4.45
2022-10-25T07:53:20.825Z,4.07
2022-10-25T07:55:51.947Z,4.35
2022-10-25T07:58:19.443Z,4.55
2022-10-25T08:00:46.949Z,4.68
2022-10-25T08:03:14.985Z,5.15
2022-10-25T08:05:44.094Z,4.93
2022-10-25T08:08:11.329Z,4.50
2022-10-25T08:10:38.777Z,4.72
2022-10-25T08:13:06.125Z,5.40
2022-10-25T08:15:33.200Z,5.22
2022-10-25T08:18:00.964Z,5.35
2022-10-25T08:20:43.418Z,4.80
2022-10-25T08:23:15.966Z,4.70
2022-10-25T08:25:43.407Z,4.57
2022-10-25T08:28:10.457Z,4.80
2022-10-25T08:30:37.527Z,4.75
2022-10-25T08:33:07.275Z,4.60
2022-10-25T08:35:36.639Z,5.05
2022-10-25T08:38:04.879Z,5.20
2022-10-25T08:40:56.351Z,4.25
2022-10-25T08:43:38.747Z,4.70
2022-10-25T08:46:13.852Z,4.40
2022-10-25T08:48:44.012Z,4.47
2022-10-25T08:51:14.931Z,5.13
2022-10-25T08:53:45.192Z,5.22
2022-10-25T08:56:17.474Z,4.70
2022-10-25T08:58:54.086Z,4.63
2022-10-25T09:01:29.473Z,4.90
2022-10-25T09:03:56.971Z,4.40
2022-10-25T09:06:28.906Z,4.57
2022-10-25T09:08:57.770Z,4.45
2022-10-25T09:11:30.189Z,4.50
2022-10-25T09:14:22.439Z,4.85
2022-10-25T09:16:53.770Z,4.13
2022-10-25T09:19:51.434Z,4.05
2022-10-25T09:22:26.785Z,3.92
2022-10-25T09:25:02.814Z,4.18
2022-10-25T09:27:29.852Z,3.85
2022-10-25T09:30:05.014Z,3.97
2022-10-25T09:32:34.410Z,4.35
2022-10-25T09:35:02.314Z,4.22
2022-10-25T09:37:39.672Z,4.35
2022-10-25T09:40:11.383Z,3.58
2022-10-25T09:42:41.437Z,4.15
2022-10-25T09:45:17.010Z,4.63
2022-10-25T09:47:50.935Z,4.10
2022-10-25T09:50:27.322Z,3.58
2022-10-25T09:53:12.707Z,4.50
2022-10-25T09:55:48.380Z,5.05
2022-10-25T09:58:33.127Z,5.00
2022-10-25T10:01:01.894Z,4.72
2022-10-25T10:03:30.382Z,5.18
2022-10-25T10:05:59.440Z,4.70
2022-10-25T10:08:26.788Z,4.78
2022-10-25T10:10:54.447Z,4.80
2022-10-25T10:13:29.099Z,4.90
2022-10-25T10:15:57.834Z,4.40
2022-10-25T10:18:26.741Z,4.57
2022-10-25T10:21:00.753Z,4.40
2022-10-25T10:23:45.552Z,4.40
2022-10-25T10:26:12.621Z,3.97
2022-10-25T10:28:44.855Z,4.50
2022-10-25T10:31:12.269Z,4.38
2022-10-25T10:33:39.694Z,4.60
2022-10-25T10:36:22.168Z,4.75
2022-10-25T10:38:49.251Z,4.95
2022-10-25T10:41:23.340Z,4.78
2022-10-25T10:43:50.394Z,4.43
2022-10-25T10:46:24.664Z,4.80
2022-10-25T10:48:55.012Z,4.28
2022-10-25T10:51:43.499Z,4.88
2022-10-25T10:54:21.084Z,4.80
2022-10-25T10:57:05.296Z,4.97
2022-10-25T10:59:37.223Z,4.50
2022-10-25T11:02:19.511Z,5.60
2022-10-25T11:04:54.583Z,6.07
2022-10-25T11:07:30.934Z,5.80
2022-10-25T11:10:16.159Z,5.82
2022-10-25T11:12:43.869Z,5.50
2022-10-25T11:15:14.189Z,5.28
2022-10-25T11:17:48.044Z,5.03
2022-10-25T11:20:24.994Z,5.10
2022-10-25T11:23:04.439Z,4.70
2022-10-25T11:25:46.532Z,4.45
2022-10-25T11:28:19.494Z,4.78
2022-10-25T11:30:53.882Z,3.88
2022-10-25T11:33:28.896Z,4.18
2022-10-25T11:36:14.225Z,4.15
2022-10-25T11:38:47.372Z,4.05
2022-10-25T11:41:45.935Z,4.22
2022-10-25T11:44:12.955Z,3.53
2022-10-25T11:46:54.462Z,3.72
2022-10-25T11:49:34.115Z,3.92
2022-10-25T11:52:10.263Z,3.90
2022-10-25T11:55:02.989Z,4.40
2022-10-25T11:57:42.162Z,3.88
2022-10-25T12:00:14.478Z,4.00
2022-10-25T12:03:12.331Z,4.00
2022-10-25T12:05:54.467Z,3.47
2022-10-25T12:08:57.728Z,3.67
2022-10-25T12:11:30.779Z,3.10
2022-10-25T12:14:11.229Z,3.67
2022-10-25T12:16:39.010Z,3.00
2022-10-25T12:19:14.139Z,3.05
2022-10-25T12:21:50.685Z,2.90
2022-10-25T12:24:21.118Z,2.90
2022-10-25T12:26:49.578Z,3.03
2022-10-25T12:29:39.335Z,4.10
2022-10-25T12:32:20.897Z,3.70
2022-10-25T12:34:53.209Z,3.63
2022-10-25T12:37:20.222Z,3.90
2022-10-25T12:39:47.323Z,4.07
2022-10-25T12:42:25.998Z,5.03
2022-10-25T12:45:08.083Z,4.43
2022-10-25T12:47:41.065Z,4.35
2022-10-25T12:50:15.229Z,4.55
2022-10-25T12:53:02.099Z,4.45
2022-10-25T12:55:47.258Z,4.00
2022-10-25T12:58:16.828Z,4.00
2022-10-25T13:01:07.971Z,3.90
2022-10-25T13:03:40.911Z,3.45
2022-10-25T13:08:34.826Z,3.08
2022-10-25T13:11:06.992Z,3.63
2022-10-25T13:13:40.015Z,3.88
2022-10-25T13:16:09.778Z,3.60
2022-10-25T13:18:43.015Z,3.42
2022-10-25T13:21:10.685Z,3.70
2022-10-25T13:23:43.301Z,4.22
2022-10-25T13:26:15.879Z,4.10
2022-10-25T13:28:50.944Z,3.90
2022-10-25T13:31:35.999Z,3.17
2022-10-25T13:34:21.647Z,3.60
2022-10-25T13:36:56.374Z,3.70
2022-10-25T13:39:23.398Z,3.33
2022-10-25T13:41:50.604Z,3.40
2022-10-25T13:44:21.322Z,4.57
2022-10-25T13:46:48.836Z,4.18
2022-10-25T13:49:31.554Z,4.30
2022-10-25T13:51:59.796Z,4.55
2022-10-25T13:54:31.649Z,4.82
2022-10-25T13:56:58.757Z,5.35
2022-10-25T13:59:59.450Z,5.30
2022-10-25T14:02:26.677Z,5.03
2022-10-25T14:04:53.895Z,4.65
2022-10-25T14:07:44.006Z,4.03
2022-10-25T14:10:23.591Z,3.25
2022-10-25T14:12:53.432Z,3.25
2022-10-25T14:15:29.392Z,3.40
2022-10-25T14:17:57.547Z,3.50
2022-10-25T14:20:29.116Z,3.55
2022-10-25T14:22:57.969Z,3.72
2022-10-25T14:25:26.348Z,4.30
2022-10-25T14:28:16.336Z,4.22
2022-10-25T14:30:43.427Z,4.10
2022-10-25T14:33:29.058Z,4.20
2022-10-25T14:36:21.229Z,4.43
2022-10-25T14:38:54.075Z,3.90
2022-10-25T14:43:49.059Z,4.90
2022-10-25T14:46:17.484Z,4.75
2022-10-25T14:48:48.391Z,4.93
2022-10-25T14:51:25.062Z,4.53
2022-10-25T14:54:03.228Z,4.70
2022-10-25T14:56:45.483Z,4.55
2022-10-25T14:59:28.533Z,5.45
2022-10-25T15:02:02.881Z,5.00
2022-10-25T15:04:34.718Z,4.70
2022-10-25T15:07:02.803Z,4.10
2022-10-25T15:09:42.373Z,4.82
2022-10-25T15:12:12.652Z,4.50
2022-10-25T15:14:39.764Z,4.38
2022-10-25T15:17:15.302Z,4.72
2022-10-25T15:20:02.991Z,4.38
2022-10-25T15:22:31.944Z,5.28
2022-10-25T15:24:59.050Z,3.90
2022-10-25T15:27:37.402Z,3.97
2022-10-25T15:30:04.745Z,4.50
2022-10-25T15:32:31.950Z,4.07
2022-10-25T15:35:02.395Z,4.20
2022-10-25T15:37:30.551Z,4.13
2022-10-25T15:39:57.775Z,4.32
2022-10-25T15:42:26.556Z,4.40
2022-10-25T15:44:53.677Z,4.60
2022-10-25T15:47:26.814Z,4.32
2022-10-25T15:49:54.175Z,4.47
2022-10-25T15:52:21.309Z,4.43
2022-10-25T15:54:49.247Z,4.68
2022-10-25T15:57:16.891Z,4.32
2022-10-25T15:59:44.001Z,3.90
2022-10-25T16:02:31.854Z,4.45
2022-10-25T16:04:58.908Z,4.28
2022-10-25T16:07:25.939Z,4.75
2022-10-25T16:09:53.005Z,4.13
2022-10-25T16:12:29.301Z,3.97
2022-10-25T16:14:56.466Z,4.57
2022-10-25T16:17:23.514Z,3.90
2022-10-25T16:19:50.557Z,3.92
2022-10-25T16:22:17.674Z,4.25
2022-10-25T16:24:44.710Z,4.20
2022-10-25T16:27:14.536Z,4.15
2022-10-25T16:29:41.697Z,4.25
2022-10-25T16:32:08.892Z,3.85
2022-10-25T16:34:36.078Z,4.28
2022-10-25T16:37:05.511Z,4.13
2022-10-25T16:39:34.762Z,4.45
2022-10-25T16:42:01.822Z,4.50
2022-10-25T16:44:28.967Z,4.90
2022-10-25T16:46:56.006Z,4.60
2022-10-25T16:49:23.241Z,4.20
2022-10-25T16:51:52.198Z,4.30
2022-10-25T16:54:23.837Z,4.90
2022-10-25T16:56:51.240Z,4.28
2022-10-25T16:59:18.286Z,5.18
2022-10-25T17:01:46.607Z,4.20
2022-10-25T17:04:14.475Z,4.60
2022-10-25T17:06:42.693Z,4.80
2022-10-25T17:09:10.274Z,4.80
2022-10-25T17:11:37.370Z,4.93
2022-10-25T17:14:04.581Z,4.30
2022-10-25T17:16:31.685Z,4.30
2022-10-25T17:18:58.715Z,4.88
2022-10-25T17:21:27.783Z,4.45
2022-10-25T17:23:54.972Z,4.93
2022-10-25T17:26:21.997Z,4.13
2022-10-25T17:28:49.028Z,4.10
2022-10-25T17:31:16.150Z,4.13
2022-10-25T17:33:43.644Z,4.20
2022-10-25T17:36:16.199Z,4.70
2022-10-25T17:38:43.623Z,4.60
2022-10-25T17:41:10.824Z,4.57
2022-10-25T17:43:38.946Z,4.57
2022-10-25T17:46:25.530Z,4.22
2022-10-25T17:48:57.324Z,4.68
2022-10-25T17:51:24.493Z,3.95
2022-10-25T17:53:55.125Z,4.40
2022-10-25T17:56:23.074Z,4.30
2022-10-25T17:58:50.688Z,4.82
2022-10-25T18:01:23.612Z,4.20
2022-10-25T18:03:51.366Z,4.05
2022-10-25T18:06:20.265Z,3.65
2022-10-25T18:08:51.261Z,4.65
2022-10-25T18:11:25.847Z,4.30
2022-10-25T18:13:54.007Z,4.95
2022-10-25T18:16:23.069Z,5.10
2022-10-25T18:18:50.192Z,5.43
2022-10-25T18:21:17.332Z,4.95
2022-10-25T18:23:44.435Z,4.97
2022-10-25T18:26:12.797Z,5.90
2022-10-25T18:28:40.158Z,5.38
2022-10-25T18:31:08.643Z,5.18
2022-10-25T18:33:37.332Z,5.32
2022-10-25T18:36:05.894Z,4.75
2022-10-25T18:38:33.007Z,5.03
2022-10-25T18:41:00.215Z,5.05
2022-10-25T18:43:27.365Z,5.05
2022-10-25T18:45:58.027Z,4.90
2022-10-25T18:48:25.409Z,5.38
2022-10-25T18:50:52.837Z,5.18
2022-10-25T18:53:20.270Z,5.00
2022-10-25T18:55:48.044Z,5.32
2022-10-25T18:58:15.427Z,4.82
2022-10-25T19:00:45.544Z,5.32
2022-10-25T19:03:13.294Z,5.72
2022-10-25T19:05:40.832Z,5.72
2022-10-25T19:08:09.039Z,4.82
2022-10-25T19:10:39.939Z,6.13
2022-10-25T19:13:07.590Z,5.82
2022-10-25T19:15:34.762Z,5.60
2022-10-25T19:18:01.825Z,5.63
2022-10-25T19:20:28.886Z,4.90
2022-10-25T19:22:58.525Z,5.47
2022-10-25T19:25:29.521Z,4.78
2022-10-25T19:27:56.801Z,4.90
2022-10-25T19:30:24.410Z,4.70
2022-10-25T19:32:51.730Z,4.57
2022-10-25T19:35:19.376Z,4.80
2022-10-25T19:37:46.739Z,4.68
2022-10-25T19:40:14.057Z,4.85
2022-10-25T19:42:41.160Z,4.85
2022-10-25T19:45:08.311Z,4.80
2022-10-25T19:47:35.868Z,5.07
2022-10-25T19:50:05.439Z,4.85
2022-10-25T19:52:35.764Z,5.03
2022-10-25T19:57:30.970Z,5.20
2022-10-25T19:59:58.034Z,5.35
2022-10-25T20:02:25.213Z,5.30
2022-10-25T20:04:52.299Z,5.05
2022-10-25T20:07:19.577Z,5.25
2022-10-25T20:09:46.611Z,5.43
2022-10-25T20:12:13.673Z,5.60
2022-10-25T20:14:40.780Z,6.00
2022-10-25T20:17:07.852Z,6.70
2022-10-25T20:19:34.956Z,7.60
2022-10-25T20:22:02.050Z,6.07
2022-10-25T20:24:29.193Z,6.53
2022-10-25T20:26:56.255Z,6.80
2022-10-25T20:29:24.068Z,6.25
2022-10-25T20:31:51.934Z,5.80
2022-10-25T20:34:19.834Z,5.70
2022-10-25T20:36:47.552Z,5.90
2022-10-25T20:39:14.847Z,5.93
2022-10-25T20:41:42.098Z,5.63
2022-10-25T20:44:09.771Z,5.65
2022-10-25T20:46:36.847Z,5.85
2022-10-25T20:49:04.714Z,5.75
2022-10-25T20:51:31.856Z,6.65
2022-10-25T20:53:58.876Z,6.05
2022-10-25T20:56:26.123Z,5.50
2022-10-25T20:58:53.223Z,6.15
2022-10-25T21:01:20.922Z,6.00
2022-10-25T21:03:48.066Z,5.88
2022-10-25T21:06:15.162Z,5.93
2022-10-25T21:08:42.209Z,5.75
2022-10-25T21:11:11.010Z,5.25
2022-10-25T21:13:38.202Z,5.28
2022-10-25T21:16:15.249Z,5.03
2022-10-25T21:18:43.057Z,5.22
2022-10-25T21:21:14.800Z,5.10
2022-10-25T21:23:41.883Z,4.85
2022-10-25T21:26:09.951Z,5.22
2022-10-25T21:28:38.698Z,5.07
2022-10-25T21:31:07.517Z,4.85
2022-10-25T21:33:34.587Z,4.95
2022-10-25T21:36:08.850Z,5.10
2022-10-25T21:38:35.938Z,4.53
2022-10-25T21:41:10.396Z,5.05
2022-10-25T21:43:38.246Z,4.90
2022-10-25T21:46:06.017Z,5.07
2022-10-25T21:48:33.363Z,5.20
2022-10-25T21:51:00.527Z,4.97
2022-10-25T21:53:27.747Z,5.20
2022-10-25T21:56:04.965Z,5.03
2022-10-25T21:58:32.031Z,4.40
2022-10-25T22:00:59.077Z,4.28
2022-10-25T22:03:28.510Z,5.18
2022-10-25T22:05:55.642Z,5.25
2022-10-25T22:08:22.728Z,5.25
2022-10-25T22:10:56.531Z,5.30
2022-10-25T22:13:23.605Z,4.85
2022-10-25T22:15:57.952Z,4.80
2022-10-25T22:18:25.243Z,4.90
2022-10-25T22:20:56.547Z,5.20
2022-10-25T22:23:24.128Z,4.25
2022-10-25T22:25:51.205Z,4.60
2022-10-25T22:28:18.304Z,4.55
2022-10-25T22:30:45.434Z,4.60
2022-10-25T22:33:12.595Z,4.30
2022-10-25T22:35:39.723Z,4.25
2022-10-25T22:38:06.827Z,4.32
2022-10-25T22:40:33.930Z,4.65
2022-10-25T22:43:03.129Z,4.57
2022-10-25T22:45:30.252Z,4.32
2022-10-25T22:47:57.329Z,4.78
2022-10-25T22:50:24.755Z,4.55
2022-10-25T22:52:51.857Z,4.32
2022-10-25T22:55:19.019Z,4.35
2022-10-25T22:57:56.221Z,4.45
2022-10-25T23:00:27.661Z,4.75
2022-10-25T23:02:54.766Z,4.93
2022-10-25T23:05:21.894Z,4.15
2022-10-25T23:07:52.397Z,4.63
2022-10-25T23:10:22.876Z,4.07
2022-10-25T23:12:50.306Z,4.30
2022-10-25T23:15:17.511Z,4.50
2022-10-25T23:20:16.580Z,4.22
2022-10-25T23:22:44.133Z,3.97
2022-10-25T23:25:11.327Z,4.30
2022-10-25T23:27:38.438Z,4.18
2022-10-25T23:30:08.729Z,4.32
2022-10-25T23:32:38.199Z,4.20
2022-10-25T23:35:05.447Z,4.72
2022-10-25T23:37:32.506Z,4.10
2022-10-25T23:39:59.547Z,4.25
2022-10-25T23:42:26.593Z,4.45
2022-10-25T23:44:53.640Z,4.43
2022-10-25T23:47:20.689Z,4.82
2022-10-25T23:49:47.722Z,4.60
2022-10-25T23:52:14.763Z,4.65
2022-10-25T23:54:41.859Z,4.32
2022-10-25T23:57:08.909Z,4.50
2022-10-25T23:59:35.948Z,4.78
